sensor_id;sensor_type;location;lat;lon;timestamp;temperature;humidity
71297;SHT31;59082;50.658;4.608;2023-02-15T05:24:52;0.87;99.99
71297;SHT31;59082;50.658;4.608;2023-02-15T05:27:36;0.92;99.99
71297;SHT31;59082;50.658;4.608;2023-02-15T05:30:20;1.22;99.99
71297;SHT31;59082;50.658;4.608;2023-02-15T05:32:46;1.17;99.99
71297;SHT31;59082;50.658;4.608;2023-02-15T05:35:14;1.51;99.99
71297;SHT31;59082;50.658;4.608;2023-02-15T05:37:40;1.58;99.99
71297;SHT31;59082;50.658;4.608;2023-02-15T05:40:06;1.58;99.99
71297;SHT31;59082;50.658;4.608;2023-02-15T05:42:32;1.65;99.99
71297;SHT31;59082;50.658;4.608;2023-02-15T05:44:57;1.27;99.99
71297;SHT31;59082;50.658;4.608;2023-02-15T05:47:23;1.13;99.99
71297;SHT31;59082;50.658;4.608;2023-02-15T05:49:48;1.00;99.99
71297;SHT31;59082;50.658;4.608;2023-02-15T05:52:14;1.14;99.99
71297;SHT31;59082;50.658;4.608;2023-02-15T05:54:39;1.41;99.99
71297;SHT31;59082;50.658;4.608;2023-02-15T05:57:05;1.26;99.99
71297;SHT31;59082;50.658;4.608;2023-02-15T05:59:30;1.22;99.99
71297;SHT31;59082;50.658;4.608;2023-02-15T06:01:56;1.30;99.99
71297;SHT31;59082;50.658;4.608;2023-02-15T06:04:21;1.28;99.99
71297;SHT31;59082;50.658;4.608;2023-02-15T06:06:47;1.20;99.99
71297;SHT31;59082;50.658;4.608;2023-02-15T06:09:12;1.43;99.99
71297;SHT31;59082;50.658;4.608;2023-02-15T06:11:38;1.50;99.99
71297;SHT31;59082;50.658;4.608;2023-02-15T06:14:04;1.50;99.99
71297;SHT31;59082;50.658;4.608;2023-02-15T06:16:29;1.43;99.99
71297;SHT31;59082;50.658;4.608;2023-02-15T06:18:55;1.31;99.99
71297;SHT31;59082;50.658;4.608;2023-02-15T06:21:21;1.16;99.99
71297;SHT31;59082;50.658;4.608;2023-02-15T06:23:46;1.34;99.99
71297;SHT31;59082;50.658;4.608;2023-02-15T06:26:12;1.40;99.99
71297;SHT31;59082;50.658;4.608;2023-02-15T06:28:37;1.13;99.99
71297;SHT31;59082;50.658;4.608;2023-02-15T06:31:03;1.17;99.99
71297;SHT31;59082;50.658;4.608;2023-02-15T06:33:29;0.92;99.99
71297;SHT31;59082;50.658;4.608;2023-02-15T06:35:59;1.07;99.99
71297;SHT31;59082;50.658;4.608;2023-02-15T06:38:25;0.90;99.99
71297;SHT31;59082;50.658;4.608;2023-02-15T06:40:50;0.93;99.99
71297;SHT31;59082;50.658;4.608;2023-02-15T06:43:16;1.06;99.99
71297;SHT31;59082;50.658;4.608;2023-02-15T06:45:42;0.89;99.99
71297;SHT31;59082;50.658;4.608;2023-02-15T06:48:07;0.83;99.99
71297;SHT31;59082;50.658;4.608;2023-02-15T06:50:34;0.78;99.99
71297;SHT31;59082;50.658;4.608;2023-02-15T06:53:00;0.90;99.99
71297;SHT31;59082;50.658;4.608;2023-02-15T06:55:25;0.93;99.99
71297;SHT31;59082;50.658;4.608;2023-02-15T06:57:51;0.92;99.99
71297;SHT31;59082;50.658;4.608;2023-02-15T07:00:17;1.08;99.99
71297;SHT31;59082;50.658;4.608;2023-02-15T07:02:43;1.23;99.99
71297;SHT31;59082;50.658;4.608;2023-02-15T07:05:09;1.22;99.99
71297;SHT31;59082;50.658;4.608;2023-02-15T07:07:35;1.55;99.99
71297;SHT31;59082;50.658;4.608;2023-02-15T07:10:01;1.59;99.99
71297;SHT31;59082;50.658;4.608;2023-02-15T07:12:26;1.87;99.99
71297;SHT31;59082;50.658;4.608;2023-02-15T07:15:13;2.00;99.99
71297;SHT31;59082;50.658;4.608;2023-02-15T07:17:40;1.98;99.99
71297;SHT31;59082;50.658;4.608;2023-02-15T07:20:11;2.17;99.99
71297;SHT31;59082;50.658;4.608;2023-02-15T07:22:37;1.99;99.99
71297;SHT31;59082;50.658;4.608;2023-02-15T07:25:04;2.00;99.99
71297;SHT31;59082;50.658;4.608;2023-02-15T07:27:31;2.06;99.99
71297;SHT31;59082;50.658;4.608;2023-02-15T07:29:57;2.29;99.99
71297;SHT31;59082;50.658;4.608;2023-02-15T07:32:22;2.33;99.99
71297;SHT31;59082;50.658;4.608;2023-02-15T07:34:48;2.47;99.99
71297;SHT31;59082;50.658;4.608;2023-02-15T07:37:13;2.55;99.99
71297;SHT31;59082;50.658;4.608;2023-02-15T07:39:39;2.59;99.99
71297;SHT31;59082;50.658;4.608;2023-02-15T07:42:04;2.58;99.99
71297;SHT31;59082;50.658;4.608;2023-02-15T07:44:30;2.59;99.99
71297;SHT31;59082;50.658;4.608;2023-02-15T07:46:56;2.61;99.99
71297;SHT31;59082;50.658;4.608;2023-02-15T07:49:21;2.64;99.99
71297;SHT31;59082;50.658;4.608;2023-02-15T07:51:47;2.89;99.99
71297;SHT31;59082;50.658;4.608;2023-02-15T07:54:12;3.05;99.99
71297;SHT31;59082;50.658;4.608;2023-02-15T07:56:38;3.13;99.99
71297;SHT31;59082;50.658;4.608;2023-02-15T07:59:03;3.26;99.99
71297;SHT31;59082;50.658;4.608;2023-02-15T08:01:33;3.50;99.99
71297;SHT31;59082;50.658;4.608;2023-02-15T08:03:58;3.68;99.99
71297;SHT31;59082;50.658;4.608;2023-02-15T08:06:27;3.78;99.65
71297;SHT31;59082;50.658;4.608;2023-02-15T08:08:52;4.05;98.88
71297;SHT31;59082;50.658;4.608;2023-02-15T08:11:29;4.79;98.15
71297;SHT31;59082;50.658;4.608;2023-02-15T08:21:37;8.09;87.38
71297;SHT31;59082;50.658;4.608;2023-02-15T08:24:04;8.38;87.51
71297;SHT31;59082;50.658;4.608;2023-02-15T08:26:31;8.54;88.00
71297;SHT31;59082;50.658;4.608;2023-02-15T08:28:57;8.96;88.09
71297;SHT31;59082;50.658;4.608;2023-02-15T08:31:23;9.50;86.65
71297;SHT31;59082;50.658;4.608;2023-02-15T08:33:50;9.79;85.48
71297;SHT31;59082;50.658;4.608;2023-02-15T08:36:18;9.75;83.89
71297;SHT31;59082;50.658;4.608;2023-02-15T08:38:44;10.42;83.64
71297;SHT31;59082;50.658;4.608;2023-02-15T08:41:14;10.21;81.30
71297;SHT31;59082;50.658;4.608;2023-02-15T08:43:40;10.27;81.43
71297;SHT31;59082;50.658;4.608;2023-02-15T08:46:06;10.76;81.69
71297;SHT31;59082;50.658;4.608;2023-02-15T08:48:32;11.03;81.39
71297;SHT31;59082;50.658;4.608;2023-02-15T08:50:57;11.21;78.99
71297;SHT31;59082;50.658;4.608;2023-02-15T08:53:23;10.66;79.13
71297;SHT31;59082;50.658;4.608;2023-02-15T08:55:58;10.72;80.65
71297;SHT31;59082;50.658;4.608;2023-02-15T08:58:23;10.38;79.40
71297;SHT31;59082;50.658;4.608;2023-02-15T09:00:49;10.17;79.59
71297;SHT31;59082;50.658;4.608;2023-02-15T09:03:15;11.00;79.30
71297;SHT31;59082;50.658;4.608;2023-02-15T09:05:40;10.89;77.85
71297;SHT31;59082;50.658;4.608;2023-02-15T09:08:06;10.93;78.05
71297;SHT31;59082;50.658;4.608;2023-02-15T09:10:31;11.92;76.14
71297;SHT31;59082;50.658;4.608;2023-02-15T09:12:57;12.87;74.20
71297;SHT31;59082;50.658;4.608;2023-02-15T09:15:22;13.68;71.87
71297;SHT31;59082;50.658;4.608;2023-02-15T09:17:48;14.28;70.51
71297;SHT31;59082;50.658;4.608;2023-02-15T09:20:13;16.33;67.75
71297;SHT31;59082;50.658;4.608;2023-02-15T09:22:39;15.19;67.50
71297;SHT31;59082;50.658;4.608;2023-02-15T09:25:04;14.73;69.38
71297;SHT31;59082;50.658;4.608;2023-02-15T09:27:30;14.98;70.43
71297;SHT31;59082;50.658;4.608;2023-02-15T09:29:55;14.98;70.75
71297;SHT31;59082;50.658;4.608;2023-02-15T09:32:21;16.96;68.09
71297;SHT31;59082;50.658;4.608;2023-02-15T09:34:47;18.07;65.21
71297;SHT31;59082;50.658;4.608;2023-02-15T09:37:13;19.12;63.07
71297;SHT31;59082;50.658;4.608;2023-02-15T09:39:41;18.84;62.76
71297;SHT31;59082;50.658;4.608;2023-02-15T09:42:30;18.14;62.63
71297;SHT31;59082;50.658;4.608;2023-02-15T09:48:03;17.51;62.39
71297;SHT31;59082;50.658;4.608;2023-02-15T09:56:38;20.53;60.63
71297;SHT31;59082;50.658;4.608;2023-02-15T10:02:06;20.46;59.14
71297;SHT31;59082;50.658;4.608;2023-02-15T10:10:35;21.08;59.15
71297;SHT31;59082;50.658;4.608;2023-02-15T10:13:16;20.57;60.01
71297;SHT31;59082;50.658;4.608;2023-02-15T10:18:42;21.01;58.62
71297;SHT31;59082;50.658;4.608;2023-02-15T10:26:49;20.17;57.36
71297;SHT31;59082;50.658;4.608;2023-02-15T10:29:32;20.30;58.88
71297;SHT31;59082;50.658;4.608;2023-02-15T10:34:55;20.09;59.58
71297;SHT31;59082;50.658;4.608;2023-02-15T10:37:46;20.40;59.38
71297;SHT31;59082;50.658;4.608;2023-02-15T10:48:39;23.52;56.46
71297;SHT31;59082;50.658;4.608;2023-02-15T11:00:22;23.11;55.82
71297;SHT31;59082;50.658;4.608;2023-02-15T11:05:23;23.70;55.18
71297;SHT31;59082;50.658;4.608;2023-02-15T11:07:52;20.71;56.09
71297;SHT31;59082;50.658;4.608;2023-02-15T11:13:08;20.56;57.61
71297;SHT31;59082;50.658;4.608;2023-02-15T11:18:32;19.14;61.28
71297;SHT31;59082;50.658;4.608;2023-02-15T11:21:18;17.93;63.11
71297;SHT31;59082;50.658;4.608;2023-02-15T11:23:46;17.56;64.01
71297;SHT31;59082;50.658;4.608;2023-02-15T11:28:54;18.03;64.16
71297;SHT31;59082;50.658;4.608;2023-02-15T11:31:23;17.72;63.52
71297;SHT31;59082;50.658;4.608;2023-02-15T11:34:06;18.61;63.31
71297;SHT31;59082;50.658;4.608;2023-02-15T11:36:39;19.02;62.71
71297;SHT31;59082;50.658;4.608;2023-02-15T11:39:11;18.79;62.14
71297;SHT31;59082;50.658;4.608;2023-02-15T11:41:52;18.85;62.54
71297;SHT31;59082;50.658;4.608;2023-02-15T11:44:23;18.96;61.96
71297;SHT31;59082;50.658;4.608;2023-02-15T11:46:51;19.95;60.87
71297;SHT31;59082;50.658;4.608;2023-02-15T11:49:29;20.99;59.53
71297;SHT31;59082;50.658;4.608;2023-02-15T11:51:56;21.50;58.47
71297;SHT31;59082;50.658;4.608;2023-02-15T11:54:31;21.56;58.61
71297;SHT31;59082;50.658;4.608;2023-02-15T11:59:47;19.31;61.79
71297;SHT31;59082;50.658;4.608;2023-02-15T12:02:22;18.03;63.26
71297;SHT31;59082;50.658;4.608;2023-02-15T12:05:00;17.30;64.65
71297;SHT31;59082;50.658;4.608;2023-02-15T12:07:32;17.21;65.43
71297;SHT31;59082;50.658;4.608;2023-02-15T12:12:35;16.87;65.73
71297;SHT31;59082;50.658;4.608;2023-02-15T12:15:04;16.59;66.31
71297;SHT31;59082;50.658;4.608;2023-02-15T12:17:39;16.52;66.25
71297;SHT31;59082;50.658;4.608;2023-02-15T12:22:41;16.49;67.02
71297;SHT31;59082;50.658;4.608;2023-02-15T12:27:56;15.84;66.97
71297;SHT31;59082;50.658;4.608;2023-02-15T12:30:26;15.79;68.52
71297;SHT31;59082;50.658;4.608;2023-02-15T12:32:58;15.89;68.59
71297;SHT31;59082;50.658;4.608;2023-02-15T12:35:33;15.84;68.48
71297;SHT31;59082;50.658;4.608;2023-02-15T12:40:36;15.93;68.29
71297;SHT31;59082;50.658;4.608;2023-02-15T12:43:04;15.56;67.91
71297;SHT31;59082;50.658;4.608;2023-02-15T12:45:36;15.54;69.50
71297;SHT31;59082;50.658;4.608;2023-02-15T12:48:18;15.66;68.28
71297;SHT31;59082;50.658;4.608;2023-02-15T12:50:46;15.19;69.08
71297;SHT31;59082;50.658;4.608;2023-02-15T12:53:32;15.57;68.69
71297;SHT31;59082;50.658;4.608;2023-02-15T12:56:08;15.46;68.97
71297;SHT31;59082;50.658;4.608;2023-02-15T12:58:43;15.64;69.72
71297;SHT31;59082;50.658;4.608;2023-02-15T13:01:18;15.77;69.26
71297;SHT31;59082;50.658;4.608;2023-02-15T13:04:04;15.89;69.53
71297;SHT31;59082;50.658;4.608;2023-02-15T13:06:33;16.19;69.06
71297;SHT31;59082;50.658;4.608;2023-02-15T13:11:43;15.89;69.52
71297;SHT31;59082;50.658;4.608;2023-02-15T13:14:16;15.86;69.51
71297;SHT31;59082;50.658;4.608;2023-02-15T13:16:46;15.54;70.64
71297;SHT31;59082;50.658;4.608;2023-02-15T13:19:16;15.54;71.05
71297;SHT31;59082;50.658;4.608;2023-02-15T13:21:48;15.15;71.33
71297;SHT31;59082;50.658;4.608;2023-02-15T13:24:22;15.33;72.02
71297;SHT31;59082;50.658;4.608;2023-02-15T13:26:48;15.39;71.21
71297;SHT31;59082;50.658;4.608;2023-02-15T13:29:28;15.26;71.89
71297;SHT31;59082;50.658;4.608;2023-02-15T13:31:57;15.22;71.54
71297;SHT31;59082;50.658;4.608;2023-02-15T13:34:26;15.29;71.77
71297;SHT31;59082;50.658;4.608;2023-02-15T13:37:15;15.21;71.59
71297;SHT31;59082;50.658;4.608;2023-02-15T13:50:38;15.19;72.70
71297;SHT31;59082;50.658;4.608;2023-02-15T13:53:45;15.73;71.61
71297;SHT31;59082;50.658;4.608;2023-02-15T13:56:21;15.93;70.84
71297;SHT31;59082;50.658;4.608;2023-02-15T13:59:03;15.80;71.01
71297;SHT31;59082;50.658;4.608;2023-02-15T14:07:28;15.33;71.79
71297;SHT31;59082;50.658;4.608;2023-02-15T14:15:38;14.87;72.54
71297;SHT31;59082;50.658;4.608;2023-02-15T14:20:51;14.53;73.98
71297;SHT31;59082;50.658;4.608;2023-02-15T14:26:06;13.88;75.43
71297;SHT31;59082;50.658;4.608;2023-02-15T14:31:02;14.11;75.41
71297;SHT31;59082;50.658;4.608;2023-02-15T14:33:40;14.09;75.73
71297;SHT31;59082;50.658;4.608;2023-02-15T14:36:15;13.94;76.04
71297;SHT31;59082;50.658;4.608;2023-02-15T14:39:27;13.77;75.85
71297;SHT31;59082;50.658;4.608;2023-02-15T14:42:21;13.78;76.64
71297;SHT31;59082;50.658;4.608;2023-02-15T14:45:01;13.81;77.06
71297;SHT31;59082;50.658;4.608;2023-02-15T14:47:37;13.70;77.78
71297;SHT31;59082;50.658;4.608;2023-02-15T14:55:45;13.79;76.98
71297;SHT31;59082;50.658;4.608;2023-02-15T14:58:12;13.79;77.31
71297;SHT31;59082;50.658;4.608;2023-02-15T15:00:40;13.42;77.89
71297;SHT31;59082;50.658;4.608;2023-02-15T15:03:18;13.50;78.02
71297;SHT31;59082;50.658;4.608;2023-02-15T15:05:55;13.37;77.92
71297;SHT31;59082;50.658;4.608;2023-02-15T15:08:38;13.43;78.07
71297;SHT31;59082;50.658;4.608;2023-02-15T15:13:58;13.42;78.19
71297;SHT31;59082;50.658;4.608;2023-02-15T15:19:04;13.16;78.35
71297;SHT31;59082;50.658;4.608;2023-02-15T15:49:31;12.02;81.60
71297;SHT31;59082;50.658;4.608;2023-02-15T15:52:03;11.89;81.34
71297;SHT31;59082;50.658;4.608;2023-02-15T15:54:29;11.82;81.96
71297;SHT31;59082;50.658;4.608;2023-02-15T15:57:02;11.93;81.49
71297;SHT31;59082;50.658;4.608;2023-02-15T15:59:30;11.89;82.22
71297;SHT31;59082;50.658;4.608;2023-02-15T16:02:05;11.75;82.43
71297;SHT31;59082;50.658;4.608;2023-02-15T16:04:33;11.54;82.55
71297;SHT31;59082;50.658;4.608;2023-02-15T16:10:03;11.59;82.36
71297;SHT31;59082;50.658;4.608;2023-02-15T16:12:31;11.48;82.65
71297;SHT31;59082;50.658;4.608;2023-02-15T16:15:11;11.23;83.22
71297;SHT31;59082;50.658;4.608;2023-02-15T16:17:43;11.23;83.59
71297;SHT31;59082;50.658;4.608;2023-02-15T16:20:20;11.17;83.56
71297;SHT31;59082;50.658;4.608;2023-02-15T16:22:49;10.93;84.28
71297;SHT31;59082;50.658;4.608;2023-02-15T16:25:39;10.80;84.62
71297;SHT31;59082;50.658;4.608;2023-02-15T16:28:13;10.69;85.19
71297;SHT31;59082;50.658;4.608;2023-02-15T16:30:40;10.65;85.22
71297;SHT31;59082;50.658;4.608;2023-02-15T16:33:15;10.48;85.96
71297;SHT31;59082;50.658;4.608;2023-02-15T16:35:57;10.35;86.48
71297;SHT31;59082;50.658;4.608;2023-02-15T16:41:07;9.60;88.43
71297;SHT31;59082;50.658;4.608;2023-02-15T16:43:36;9.45;89.42
71297;SHT31;59082;50.658;4.608;2023-02-15T16:46:09;9.10;89.88
71297;SHT31;59082;50.658;4.608;2023-02-15T16:48:39;9.10;90.02
71297;SHT31;59082;50.658;4.608;2023-02-15T16:51:06;9.05;90.19
71297;SHT31;59082;50.658;4.608;2023-02-15T16:53:32;8.74;90.66
71297;SHT31;59082;50.658;4.608;2023-02-15T16:56:01;8.56;91.52
71297;SHT31;59082;50.658;4.608;2023-02-15T16:58:38;8.26;91.97
71297;SHT31;59082;50.658;4.608;2023-02-15T17:01:07;8.20;92.20
71297;SHT31;59082;50.658;4.608;2023-02-15T17:03:34;7.98;92.36
71297;SHT31;59082;50.658;4.608;2023-02-15T17:06:02;7.81;93.00
71297;SHT31;59082;50.658;4.608;2023-02-15T17:08:34;7.67;93.47
71297;SHT31;59082;50.658;4.608;2023-02-15T17:21:54;7.22;95.57
71297;SHT31;59082;50.658;4.608;2023-02-15T17:24:42;7.45;95.04
71297;SHT31;59082;50.658;4.608;2023-02-15T17:27:28;7.37;95.20
71297;SHT31;59082;50.658;4.608;2023-02-15T17:30:03;7.05;95.52
71297;SHT31;59082;50.658;4.608;2023-02-15T17:32:34;7.02;96.35
71297;SHT31;59082;50.658;4.608;2023-02-15T17:35:17;6.67;96.78
71297;SHT31;59082;50.658;4.608;2023-02-15T17:37:46;6.78;97.47
71297;SHT31;59082;50.658;4.608;2023-02-15T17:40:26;6.71;97.58
71297;SHT31;59082;50.658;4.608;2023-02-15T17:42:51;7.02;96.81
71297;SHT31;59082;50.658;4.608;2023-02-15T17:45:18;6.87;97.06
71297;SHT31;59082;50.658;4.608;2023-02-15T17:47:46;6.88;97.01
71297;SHT31;59082;50.658;4.608;2023-02-15T17:50:30;6.74;97.55
71297;SHT31;59082;50.658;4.608;2023-02-15T17:52:57;6.66;97.70
71297;SHT31;59082;50.658;4.608;2023-02-15T17:55:24;6.56;97.75
71297;SHT31;59082;50.658;4.608;2023-02-15T17:58:11;6.64;98.36
71297;SHT31;59082;50.658;4.608;2023-02-15T18:01:07;6.81;97.64
71297;SHT31;59082;50.658;4.608;2023-02-15T18:03:54;6.60;97.90
71297;SHT31;59082;50.658;4.608;2023-02-15T18:06:40;6.94;97.47
71297;SHT31;59082;50.658;4.608;2023-02-15T18:09:25;7.26;97.01
71297;SHT31;59082;50.658;4.608;2023-02-15T18:12:21;7.30;96.12
71297;SHT31;59082;50.658;4.608;2023-02-15T18:14:48;7.25;96.64
71297;SHT31;59082;50.658;4.608;2023-02-15T18:17:15;7.29;96.84
71297;SHT31;59082;50.658;4.608;2023-02-15T18:19:43;7.45;96.18
71297;SHT31;59082;50.658;4.608;2023-02-15T18:22:14;7.42;95.98
71297;SHT31;59082;50.658;4.608;2023-02-15T18:24:40;7.49;95.88
71297;SHT31;59082;50.658;4.608;2023-02-15T18:27:06;7.36;96.09
71297;SHT31;59082;50.658;4.608;2023-02-15T18:29:31;7.36;96.29
71297;SHT31;59082;50.658;4.608;2023-02-15T18:31:58;7.22;96.25
71297;SHT31;59082;50.658;4.608;2023-02-15T18:34:27;7.16;96.46
71297;SHT31;59082;50.658;4.608;2023-02-15T18:36:55;7.14;96.55
71297;SHT31;59082;50.658;4.608;2023-02-15T18:41:56;7.32;96.16
71297;SHT31;59082;50.658;4.608;2023-02-15T18:44:22;7.19;96.19
71297;SHT31;59082;50.658;4.608;2023-02-15T18:46:47;7.42;95.81
71297;SHT31;59082;50.658;4.608;2023-02-15T18:49:13;7.49;95.36
71297;SHT31;59082;50.658;4.608;2023-02-15T18:51:39;7.50;95.10
71297;SHT31;59082;50.658;4.608;2023-02-15T18:54:13;7.32;95.17
71297;SHT31;59082;50.658;4.608;2023-02-15T18:56:40;7.20;95.64
71297;SHT31;59082;50.658;4.608;2023-02-15T18:59:05;7.23;95.91
71297;SHT31;59082;50.658;4.608;2023-02-15T19:01:31;7.02;96.16
71297;SHT31;59082;50.658;4.608;2023-02-15T19:03:56;7.12;96.03
71297;SHT31;59082;50.658;4.608;2023-02-15T19:06:22;7.16;96.10
71297;SHT31;59082;50.658;4.608;2023-02-15T19:08:50;7.20;95.88
71297;SHT31;59082;50.658;4.608;2023-02-15T19:11:18;7.16;96.00
71297;SHT31;59082;50.658;4.608;2023-02-15T19:13:45;7.05;96.03
71297;SHT31;59082;50.658;4.608;2023-02-15T19:16:32;6.87;96.45
71297;SHT31;59082;50.658;4.608;2023-02-15T19:19:06;6.73;96.89
71297;SHT31;59082;50.658;4.608;2023-02-15T19:21:31;6.60;97.21
71297;SHT31;59082;50.658;4.608;2023-02-15T19:24:12;6.61;97.49
71297;SHT31;59082;50.658;4.608;2023-02-15T19:26:45;6.36;97.56
71297;SHT31;59082;50.658;4.608;2023-02-15T19:29:22;6.21;98.32
71297;SHT31;59082;50.658;4.608;2023-02-15T19:31:48;6.12;98.42
71297;SHT31;59082;50.658;4.608;2023-02-15T19:34:16;6.15;98.43
71297;SHT31;59082;50.658;4.608;2023-02-15T19:36:46;6.05;98.63
71297;SHT31;59082;50.658;4.608;2023-02-15T19:39:31;5.78;99.38
71297;SHT31;59082;50.658;4.608;2023-02-15T19:41:57;5.78;99.40
71297;SHT31;59082;50.658;4.608;2023-02-15T19:44:23;5.88;99.06
71297;SHT31;59082;50.658;4.608;2023-02-15T19:46:49;5.67;99.78
71297;SHT31;59082;50.658;4.608;2023-02-15T19:49:14;5.84;99.19
71297;SHT31;59082;50.658;4.608;2023-02-15T19:51:40;5.94;98.82
71297;SHT31;59082;50.658;4.608;2023-02-15T19:54:30;5.84;98.67
71297;SHT31;59082;50.658;4.608;2023-02-15T19:56:56;5.61;99.59
71297;SHT31;59082;50.658;4.608;2023-02-15T19:59:30;5.39;99.99
71297;SHT31;59082;50.658;4.608;2023-02-15T20:01:56;5.37;99.99
71297;SHT31;59082;50.658;4.608;2023-02-15T20:04:22;5.30;99.99
71297;SHT31;59082;50.658;4.608;2023-02-15T20:06:48;5.35;99.99
71297;SHT31;59082;50.658;4.608;2023-02-15T20:09:24;5.42;99.99
71297;SHT31;59082;50.658;4.608;2023-02-15T20:11:53;5.56;99.99
71297;SHT31;59082;50.658;4.608;2023-02-15T20:14:19;5.47;99.99
71297;SHT31;59082;50.658;4.608;2023-02-15T20:16:45;5.39;99.99
71297;SHT31;59082;50.658;4.608;2023-02-15T20:19:10;5.27;99.99
71297;SHT31;59082;50.658;4.608;2023-02-15T20:21:37;5.11;99.99
71297;SHT31;59082;50.658;4.608;2023-02-15T20:24:04;4.98;99.99
71297;SHT31;59082;50.658;4.608;2023-02-15T20:26:30;5.00;99.99
71297;SHT31;59082;50.658;4.608;2023-02-15T20:28:57;5.08;99.99
71297;SHT31;59082;50.658;4.608;2023-02-15T20:31:23;4.98;99.99
71297;SHT31;59082;50.658;4.608;2023-02-15T20:33:50;4.87;99.99
71297;SHT31;59082;50.658;4.608;2023-02-15T20:36:19;4.89;99.99
71297;SHT31;59082;50.658;4.608;2023-02-15T20:38:46;4.70;99.99
71297;SHT31;59082;50.658;4.608;2023-02-15T20:41:14;4.70;99.99
71297;SHT31;59082;50.658;4.608;2023-02-15T20:43:58;4.64;99.99
71297;SHT31;59082;50.658;4.608;2023-02-15T20:46:23;4.47;99.99
71297;SHT31;59082;50.658;4.608;2023-02-15T20:48:49;4.33;99.99
71297;SHT31;59082;50.658;4.608;2023-02-15T20:51:17;4.07;99.99
71297;SHT31;59082;50.658;4.608;2023-02-15T20:53:43;3.86;99.99
71297;SHT31;59082;50.658;4.608;2023-02-15T20:56:27;3.99;99.99
71297;SHT31;59082;50.658;4.608;2023-02-15T20:58:53;4.10;99.99
71297;SHT31;59082;50.658;4.608;2023-02-15T21:01:19;3.79;99.99
71297;SHT31;59082;50.658;4.608;2023-02-15T21:03:45;4.12;99.99
71297;SHT31;59082;50.658;4.608;2023-02-15T21:06:14;4.14;99.99
71297;SHT31;59082;50.658;4.608;2023-02-15T21:08:40;4.09;99.99
71297;SHT31;59082;50.658;4.608;2023-02-15T21:11:21;4.07;99.99
71297;SHT31;59082;50.658;4.608;2023-02-15T21:13:48;4.19;99.99
71297;SHT31;59082;50.658;4.608;2023-02-15T21:16:15;3.89;99.99
71297;SHT31;59082;50.658;4.608;2023-02-15T21:18:40;3.91;99.99
71297;SHT31;59082;50.658;4.608;2023-02-15T21:21:14;3.74;99.99
71297;SHT31;59082;50.658;4.608;2023-02-15T21:23:40;3.61;99.99
71297;SHT31;59082;50.658;4.608;2023-02-15T21:26:18;3.50;99.99
71297;SHT31;59082;50.658;4.608;2023-02-15T21:28:44;3.41;99.99
71297;SHT31;59082;50.658;4.608;2023-02-15T21:31:21;3.31;99.99
71297;SHT31;59082;50.658;4.608;2023-02-15T21:33:48;3.48;99.99
